Time;durP1;ratioP1;P1;durP2;ratioP2;P2;SDS_P1;SDS_P2;PMS_P1;PMS_P2;Temp;Humidity;BMP_temperature;BMP_pressure;BME280_temperature;BME280_humidity;BME280_pressure;Samples;Min_cycle;Max_cycle;Signal;HPM_P1;HPM_P2
2022/11/16 00:01:18;;;;;;;243.40;25.00;;;5.10;99.90;;;;;;5090121;28;20020;-50
2022/11/16 00:03:44;;;;;;;309.25;28.90;;;5.10;99.90;;;;;;5091120;28;20020;-50
2022/11/16 00:06:12;;;;;;;243.90;24.58;;;5.10;99.90;;;;;;5090089;28;20020;-50
2022/11/16 00:08:43;;;;;;;69.03;19.00;;;5.10;99.90;;;;;;5091164;28;20028;-51
2022/11/16 00:11:15;;;;;;;55.90;19.50;;;5.10;99.90;;;;;;5091384;28;20048;-49
2022/11/16 00:13:42;;;;;;;77.85;20.58;;;5.00;99.90;;;;;;5091227;28;20403;-50
2022/11/16 00:16:14;;;;;;;33.00;18.25;;;5.00;99.90;;;;;;5091361;28;20021;-51
2022/11/16 00:18:40;;;;;;;44.45;20.67;;;5.10;99.90;;;;;;5090921;28;20089;-49
2022/11/16 00:21:05;;;;;;;51.28;20.60;;;5.10;99.90;;;;;;5091176;28;20091;-50
2022/11/16 00:23:33;;;;;;;56.75;20.38;;;5.10;99.90;;;;;;5091732;28;20017;-51
2022/11/16 00:26:08;;;;;;;35.15;19.33;;;5.10;99.90;;;;;;5094745;28;20028;-51
2022/11/16 00:28:34;;;;;;;33.88;17.10;;;5.20;99.90;;;;;;5094793;28;20027;-49
2022/11/16 00:31:03;;;;;;;35.70;17.52;;;5.10;99.90;;;;;;5094757;28;20024;-50
2022/11/16 00:33:29;;;;;;;45.35;18.00;;;5.10;99.90;;;;;;5094730;28;20024;-51
2022/11/16 00:35:55;;;;;;;40.83;18.15;;;5.10;99.90;;;;;;5094622;28;20023;-52
2022/11/16 00:38:21;;;;;;;38.15;18.65;;;5.10;99.90;;;;;;5094691;28;20307;-52
2022/11/16 00:40:46;;;;;;;46.70;17.55;;;5.10;99.90;;;;;;5094495;28;20070;-49
2022/11/16 00:43:12;;;;;;;36.17;18.30;;;5.20;99.90;;;;;;5093168;28;20498;-51
2022/11/16 00:45:39;;;;;;;41.67;16.83;;;5.10;99.90;;;;;;5094321;28;20055;-51
2022/11/16 00:48:05;;;;;;;40.20;18.05;;;5.10;99.90;;;;;;5094381;28;20073;-49
2022/11/16 00:50:31;;;;;;;38.80;18.00;;;5.10;99.90;;;;;;5094245;28;20081;-49
2022/11/16 00:52:56;;;;;;;32.30;18.80;;;5.10;99.90;;;;;;5092875;28;20020;-50
2022/11/16 00:55:22;;;;;;;38.03;19.45;;;5.10;99.90;;;;;;5094270;28;20070;-51
2022/11/16 00:57:48;;;;;;;35.85;17.73;;;5.20;99.90;;;;;;5094113;28;20074;-50
2022/11/16 01:00:14;;;;;;;28.05;17.70;;;5.20;99.90;;;;;;5094198;28;20577;-51
2022/11/16 01:02:40;;;;;;;31.58;18.75;;;5.20;99.90;;;;;;5093856;28;20052;-52
2022/11/16 01:05:08;;;;;;;31.27;17.88;;;5.20;99.90;;;;;;5094152;28;20094;-52
2022/11/16 01:07:35;;;;;;;34.10;18.88;;;5.10;99.90;;;;;;5093855;28;20103;-51
2022/11/16 01:10:08;;;;;;;34.85;17.85;;;5.20;99.90;;;;;;5093979;28;20052;-52
2022/11/16 01:12:34;;;;;;;33.50;18.98;;;5.20;99.90;;;;;;5092437;28;20024;-50
2022/11/16 01:15:00;;;;;;;42.08;18.40;;;5.20;99.90;;;;;;5093955;28;20034;-50
2022/11/16 01:17:25;;;;;;;40.60;18.83;;;5.20;99.90;;;;;;5093822;28;20031;-52
2022/11/16 01:19:51;;;;;;;39.95;18.48;;;5.20;99.90;;;;;;5093414;28;20040;-49
2022/11/16 01:22:17;;;;;;;37.55;19.20;;;5.20;99.90;;;;;;5093591;28;20375;-51
2022/11/16 01:24:45;;;;;;;41.70;19.38;;;5.20;99.90;;;;;;5093488;28;20039;-49
2022/11/16 01:27:10;;;;;;;39.63;18.20;;;5.20;99.90;;;;;;5093694;28;20016;-50
2022/11/16 01:29:36;;;;;;;44.63;18.63;;;5.20;99.90;;;;;;5093438;28;20478;-49
2022/11/16 01:32:02;;;;;;;38.97;18.15;;;5.20;99.90;;;;;;5093553;28;20027;-49
2022/11/16 01:34:28;;;;;;;45.03;17.95;;;5.20;99.90;;;;;;5093312;28;20023;-53
2022/11/16 01:36:53;;;;;;;43.88;17.83;;;5.20;99.90;;;;;;5093321;28;20035;-49
2022/11/16 01:39:19;;;;;;;48.00;18.85;;;5.20;99.90;;;;;;5093381;28;20020;-49
2022/11/16 01:41:45;;;;;;;51.88;18.63;;;5.20;99.90;;;;;;5093199;28;20474;-50
2022/11/16 01:44:13;;;;;;;51.85;19.00;;;5.20;99.90;;;;;;5093238;28;20479;-51
2022/11/16 01:46:40;;;;;;;36.67;17.35;;;5.20;99.90;;;;;;5093047;28;20034;-51
2022/11/16 01:49:14;;;;;;;43.40;18.70;;;5.20;99.90;;;;;;5092941;28;20387;-51
2022/11/16 01:51:44;;;;;;;65.93;19.45;;;5.20;99.90;;;;;;5093060;28;20055;-51
2022/11/16 01:54:12;;;;;;;27.45;17.10;;;5.20;99.90;;;;;;5077747;28;20028;-49
2022/11/16 01:56:39;;;;;;;107.35;20.13;;;5.20;99.90;;;;;;5072734;28;20118;-51
2022/11/16 01:59:06;;;;;;;92.10;19.65;;;5.20;99.90;;;;;;5072816;28;20032;-50
2022/11/16 02:01:31;;;;;;;92.88;20.38;;;5.20;99.90;;;;;;5071161;28;20389;-50
2022/11/16 02:03:57;;;;;;;238.35;23.80;;;5.20;99.90;;;;;;5072793;28;20031;-49
2022/11/16 02:06:26;;;;;;;183.30;22.20;;;5.10;99.90;;;;;;5072583;28;20028;-50
2022/11/16 02:12:05;;;;;;;193.23;21.90;;;5.10;99.90;;;;;;5072528;28;20078;-51
2022/11/16 02:14:34;;;;;;;198.77;20.88;;;5.10;99.90;;;;;;5072573;28;20119;-50
2022/11/16 02:17:11;;;;;;;175.63;20.92;;;5.10;99.90;;;;;;5072113;28;20024;-49
2022/11/16 02:20:05;;;;;;;29.95;16.95;;;5.10;99.90;;;;;;5072134;28;20390;-51
2022/11/16 02:22:55;;;;;;;89.20;18.63;;;5.10;99.90;;;;;;5066343;28;20032;-52
2022/11/16 02:25:56;;;;;;;65.85;18.02;;;5.10;99.90;;;;;;5071325;28;20035;-51
2022/11/16 02:28:49;;;;;;;55.13;17.42;;;5.10;99.90;;;;;;5072208;28;20727;-49
2022/11/16 02:31:22;;;;;;;115.00;19.00;;;5.10;99.90;;;;;;5072161;28;20028;-50
2022/11/16 02:33:49;;;;;;;58.28;17.10;;;5.00;99.90;;;;;;5072050;28;20090;-48
2022/11/16 02:36:21;;;;;;;73.28;18.00;;;5.00;99.90;;;;;;5072040;28;20483;-49
2022/11/16 02:39:04;;;;;;;50.75;18.52;;;5.00;99.90;;;;;;5072026;28;20392;-49
2022/11/16 02:41:34;;;;;;;174.95;22.25;;;5.00;99.90;;;;;;5071939;28;20028;-51
2022/11/16 02:44:05;;;;;;;156.98;20.98;;;5.00;99.90;;;;;;5071781;28;20559;-49
2022/11/16 02:46:36;;;;;;;186.95;21.73;;;5.00;99.90;;;;;;5071388;28;20028;-52
2022/11/16 02:49:08;;;;;;;90.57;19.00;;;4.90;99.90;;;;;;5071861;28;20016;-49
2022/11/16 02:51:37;;;;;;;108.63;20.15;;;4.90;99.90;;;;;;5071866;28;20070;-50
2022/11/16 02:54:16;;;;;;;83.07;20.60;;;4.90;99.90;;;;;;5071960;28;20024;-50
2022/11/16 02:56:51;;;;;;;106.78;19.20;;;4.90;99.90;;;;;;5071759;28;20031;-49
2022/11/16 02:59:17;;;;;;;98.15;20.10;;;4.90;99.90;;;;;;5071608;28;20486;-49
2022/11/16 03:02:14;;;;;;;116.15;20.58;;;4.90;99.90;;;;;;5071648;28;20033;-49
2022/11/16 03:04:45;;;;;;;141.70;21.50;;;5.00;99.90;;;;;;5033884;28;20600;-49
2022/11/16 03:07:15;;;;;;;77.20;18.55;;;5.00;99.90;;;;;;5071797;28;20429;-51
2022/11/16 03:09:42;;;;;;;60.55;16.85;;;5.00;99.90;;;;;;5071889;28;20028;-49
2022/11/16 03:12:14;;;;;;;270.83;25.88;;;5.10;99.90;;;;;;5071526;28;20021;-51
2022/11/16 03:14:48;;;;;;;68.57;18.52;;;5.00;99.90;;;;;;5071536;28;20032;-51
2022/11/16 03:17:24;;;;;;;67.90;18.27;;;5.00;99.90;;;;;;5070332;28;20472;-52
2022/11/16 03:20:14;;;;;;;179.73;22.70;;;5.00;99.90;;;;;;5071396;28;20056;-49
2022/11/16 03:22:46;;;;;;;214.77;21.95;;;5.00;99.90;;;;;;5071249;28;20099;-50
2022/11/16 03:25:15;;;;;;;321.67;29.85;;;5.00;99.90;;;;;;5071501;28;20029;-49
2022/11/16 03:27:49;;;;;;;222.95;23.50;;;5.00;99.90;;;;;;5071502;28;20074;-48
2022/11/16 03:30:24;;;;;;;310.50;25.63;;;5.00;99.90;;;;;;5071428;28;20444;-51
2022/11/16 03:33:06;;;;;;;219.32;22.25;;;5.00;99.90;;;;;;5071147;28;20074;-49
2022/11/16 03:36:04;;;;;;;46.97;17.20;;;5.00;99.90;;;;;;5070696;28;20419;-49
2022/11/16 03:38:32;;;;;;;58.30;17.35;;;5.10;99.90;;;;;;5064920;28;20040;-48
2022/11/16 03:41:04;;;;;;;44.33;17.70;;;5.10;99.90;;;;;;5071015;28;20028;-51
2022/11/16 03:43:31;;;;;;;30.83;17.60;;;5.10;99.90;;;;;;5070442;28;20028;-51
2022/11/16 03:45:57;;;;;;;111.32;20.63;;;5.10;99.90;;;;;;5069478;28;20029;-53
2022/11/16 03:48:23;;;;;;;40.22;18.38;;;5.00;99.90;;;;;;5071421;28;20028;-53
2022/11/16 03:50:49;;;;;;;136.95;21.05;;;5.10;99.90;;;;;;5071185;28;20013;-52
2022/11/16 03:53:15;;;;;;;141.80;20.48;;;5.10;99.90;;;;;;5069920;28;20029;-52
2022/11/16 03:55:41;;;;;;;92.55;19.98;;;5.10;99.90;;;;;;5069796;28;20025;-50
2022/11/16 03:58:06;;;;;;;118.43;21.23;;;5.10;99.90;;;;;;5069954;28;20025;-50
2022/11/16 04:00:32;;;;;;;57.40;17.10;;;5.10;99.90;;;;;;5074942;28;20036;-51
2022/11/16 04:02:58;;;;;;;73.30;20.52;;;5.10;99.90;;;;;;5073802;28;20036;-52
2022/11/16 04:24:55;;;;;;;100.28;19.73;;;5.10;99.90;;;;;;5074627;28;20082;-48
2022/11/16 04:30:12;;;;;;;105.35;17.92;;;5.10;99.90;;;;;;5074844;28;20060;-49
2022/11/16 04:38:07;;;;;;;86.22;20.20;;;5.10;99.90;;;;;;5074235;28;20082;-51
2022/11/16 04:40:33;;;;;;;92.65;20.33;;;5.10;99.90;;;;;;5074146;28;20032;-52
2022/11/16 04:43:00;;;;;;;254.30;23.92;;;5.10;99.90;;;;;;5073103;28;20028;-50
2022/11/16 04:48:12;;;;;;;143.80;24.25;;;5.10;99.90;;;;;;5074373;28;20528;-49
2022/11/16 04:50:38;;;;;;;231.60;24.48;;;5.10;99.90;;;;;;5074443;28;20139;-52
2022/11/16 04:53:05;;;;;;;174.88;21.83;;;5.10;99.90;;;;;;5073854;28;20024;-50
2022/11/16 04:55:31;;;;;;;302.98;24.85;;;5.20;99.90;;;;;;5074013;28;20123;-50
2022/11/16 04:57:57;;;;;;;151.50;20.88;;;5.10;99.90;;;;;;5073976;28;20450;-49
2022/11/16 05:00:23;;;;;;;185.27;22.88;;;5.10;99.90;;;;;;5074001;28;20525;-49
2022/11/16 05:02:49;;;;;;;166.98;22.20;;;5.10;99.90;;;;;;5073730;28;20035;-50
2022/11/16 05:05:14;;;;;;;89.00;20.48;;;5.20;99.90;;;;;;5073784;28;20495;-48
2022/11/16 05:07:40;;;;;;;100.03;19.92;;;5.10;99.90;;;;;;5073772;28;20029;-49
2022/11/16 05:10:07;;;;;;;85.35;20.38;;;5.20;99.90;;;;;;5073125;28;20025;-51
2022/11/16 05:12:33;;;;;;;127.45;21.45;;;5.10;99.90;;;;;;5073648;28;20032;-50
2022/11/16 05:14:59;;;;;;;89.80;21.55;;;5.20;99.90;;;;;;5073774;28;20380;-50
2022/11/16 05:17:26;;;;;;;114.63;21.05;;;5.20;99.90;;;;;;5073594;28;20032;-50
2022/11/16 05:24:32;;;;;;;79.05;19.58;;;5.10;99.90;;;;;;5073446;28;20490;-48
2022/11/16 05:25:58;;;;;;;81.07;19.63;;;5.10;99.90;;;;;;5073110;28;20498;-50
2022/11/16 05:28:23;;;;;;;88.03;20.20;;;5.10;99.90;;;;;;5073342;28;20029;-51
2022/11/16 05:30:49;;;;;;;48.92;20.35;;;5.10;99.90;;;;;;5073236;28;20082;-49
2022/11/16 05:33:16;;;;;;;45.08;19.90;;;5.20;99.90;;;;;;5073452;28;20036;-51
2022/11/16 05:35:42;;;;;;;44.00;18.92;;;5.20;99.90;;;;;;5073270;28;20036;-51
2022/11/16 05:38:08;;;;;;;38.35;17.75;;;5.20;99.90;;;;;;5073150;28;20032;-50
2022/11/16 05:40:33;;;;;;;43.97;18.80;;;5.30;99.90;;;;;;5072962;28;20033;-51
2022/11/16 05:42:59;;;;;;;39.17;19.10;;;5.30;99.90;;;;;;5073128;28;20055;-52
2022/11/16 05:45:24;;;;;;;44.78;18.33;;;5.30;99.90;;;;;;5073164;28;20037;-51
2022/11/16 05:47:50;;;;;;;52.55;19.23;;;5.30;99.90;;;;;;5071537;28;20383;-51
2022/11/16 05:50:16;;;;;;;38.90;19.67;;;5.40;99.90;;;;;;5072972;28;20575;-52
2022/11/16 05:52:41;;;;;;;45.25;19.63;;;5.40;99.90;;;;;;5072881;28;20028;-51
2022/11/16 05:55:08;;;;;;;53.00;19.55;;;5.40;99.90;;;;;;5072750;28;20020;-53
2022/11/16 05:57:33;;;;;;;45.47;19.10;;;5.40;99.90;;;;;;5071454;28;20119;-51
2022/11/16 05:59:59;;;;;;;70.45;18.35;;;5.40;99.90;;;;;;5072808;28;20119;-50
2022/11/16 06:02:24;;;;;;;39.53;19.20;;;5.40;99.90;;;;;;5071962;28;20067;-52
2022/11/16 06:04:50;;;;;;;60.53;19.35;;;5.40;99.90;;;;;;5071332;28;20035;-50
2022/11/16 06:07:16;;;;;;;51.47;19.60;;;5.40;99.90;;;;;;5071247;28;20364;-51
2022/11/16 06:09:42;;;;;;;57.28;19.75;;;5.40;99.90;;;;;;5071076;28;20027;-51
2022/11/16 06:12:08;;;;;;;63.38;20.85;;;5.50;99.90;;;;;;5071119;28;20032;-51
2022/11/16 06:14:33;;;;;;;40.70;19.90;;;5.40;99.90;;;;;;5071101;28;20391;-52
2022/11/16 06:16:59;;;;;;;72.25;19.88;;;5.40;99.90;;;;;;5071605;28;20055;-51
2022/11/16 06:19:25;;;;;;;32.22;19.15;;;5.40;99.90;;;;;;5071129;28;20127;-50
2022/11/16 06:21:50;;;;;;;47.72;19.20;;;5.40;99.90;;;;;;5070049;28;20024;-51
2022/11/16 06:24:16;;;;;;;59.60;29.98;;;5.50;99.90;;;;;;5069663;28;20025;-50
2022/11/16 06:26:44;;;;;;;40.47;22.77;;;5.50;99.90;;;;;;5070905;28;20071;-51
2022/11/16 06:29:10;;;;;;;72.97;21.48;;;5.50;99.90;;;;;;5071221;28;20055;-50
2022/11/16 06:31:36;;;;;;;40.58;19.25;;;5.50;99.90;;;;;;5071271;28;20499;-51
2022/11/16 06:34:01;;;;;;;52.15;22.73;;;5.50;99.90;;;;;;5069981;28;20116;-50
2022/11/16 06:36:27;;;;;;;38.33;20.00;;;5.50;99.90;;;;;;5070497;28;20472;-53
2022/11/16 06:38:53;;;;;;;52.55;22.17;;;5.60;99.90;;;;;;5070766;28;20028;-51
2022/11/16 06:41:19;;;;;;;50.20;27.17;;;5.50;99.90;;;;;;5070848;28;20031;-51
2022/11/16 06:43:44;;;;;;;71.82;37.03;;;5.60;99.90;;;;;;5070787;28;20095;-51
2022/11/16 06:46:10;;;;;;;46.10;25.15;;;5.70;99.90;;;;;;5070717;28;20472;-49
2022/11/16 06:48:35;;;;;;;39.47;20.77;;;5.70;99.90;;;;;;5070655;28;20060;-50
2022/11/16 06:51:01;;;;;;;41.72;21.10;;;5.70;99.90;;;;;;5070728;28;20069;-51
2022/11/16 06:53:27;;;;;;;36.80;22.88;;;5.80;99.90;;;;;;5070652;28;20104;-51
2022/11/16 06:55:52;;;;;;;30.17;17.02;;;5.70;99.90;;;;;;5070545;28;20051;-52
2022/11/16 06:58:18;;;;;;;27.13;15.65;;;5.80;99.90;;;;;;5070640;28;20085;-52
2022/11/16 07:00:44;;;;;;;23.38;15.45;;;5.90;99.90;;;;;;5070337;28;20149;-50
2022/11/16 07:03:09;;;;;;;26.13;16.88;;;5.90;99.90;;;;;;5070606;28;20024;-54
2022/11/16 07:05:39;;;;;;;26.45;16.60;;;5.90;99.90;;;;;;5070159;28;20037;-51
2022/11/16 07:08:05;;;;;;;40.97;16.20;;;5.90;99.90;;;;;;5070433;28;20056;-51
2022/11/16 07:10:30;;;;;;;29.08;16.30;;;6.00;99.90;;;;;;5069238;28;20036;-51
2022/11/16 07:12:56;;;;;;;24.85;15.00;;;5.90;99.90;;;;;;5070854;28;20506;-54
2022/11/16 07:15:22;;;;;;;26.65;16.58;;;6.00;99.90;;;;;;5070547;28;20035;-50
2022/11/16 07:17:47;;;;;;;34.10;16.05;;;6.00;99.90;;;;;;5070336;28;20029;-54
2022/11/16 07:20:13;;;;;;;30.30;16.80;;;6.00;99.90;;;;;;5070449;28;20453;-50
2022/11/16 07:22:39;;;;;;;26.92;17.45;;;6.00;99.90;;;;;;5070012;28;20499;-50
2022/11/16 07:25:05;;;;;;;31.45;17.30;;;5.90;99.90;;;;;;5070361;28;20025;-50
2022/11/16 07:27:31;;;;;;;33.08;17.52;;;6.00;99.90;;;;;;5070138;28;20034;-50
2022/11/16 07:29:57;;;;;;;35.08;19.00;;;5.90;99.90;;;;;;5070561;28;20052;-51
2022/11/16 07:32:22;;;;;;;41.75;18.05;;;5.80;99.90;;;;;;5070935;28;20021;-51
2022/11/16 07:34:48;;;;;;;37.47;20.23;;;5.70;99.90;;;;;;5074124;28;20119;-50
2022/11/16 07:37:13;;;;;;;34.72;17.40;;;5.70;99.90;;;;;;5074343;28;20059;-50
2022/11/16 07:39:40;;;;;;;38.83;22.95;;;5.70;99.90;;;;;;5074060;28;20113;-51
2022/11/16 07:42:10;;;;;;;47.38;19.88;;;5.80;99.90;;;;;;5074222;28;20162;-51
2022/11/16 07:44:36;;;;;;;32.55;19.55;;;5.60;99.90;;;;;;5073907;28;20028;-50
2022/11/16 07:47:02;;;;;;;42.05;23.73;;;5.70;99.90;;;;;;5074141;28;20172;-50
2022/11/16 07:49:28;;;;;;;26.33;17.95;;;5.70;99.90;;;;;;5074101;28;20538;-51
2022/11/16 07:51:53;;;;;;;31.75;19.42;;;5.90;99.90;;;;;;5073868;28;20020;-52
2022/11/16 07:54:19;;;;;;;29.70;16.08;;;5.90;99.90;;;;;;5074123;28;20020;-52
2022/11/16 07:56:45;;;;;;;27.85;17.73;;;6.00;99.90;;;;;;5073757;28;20028;-51
2022/11/16 07:59:10;;;;;;;33.33;19.13;;;6.00;99.90;;;;;;5074060;28;20024;-50
2022/11/16 08:01:36;;;;;;;38.67;23.52;;;6.00;99.90;;;;;;5073660;28;20052;-51
2022/11/16 08:04:02;;;;;;;42.97;22.02;;;6.10;99.90;;;;;;5073714;28;20572;-52
2022/11/16 08:06:30;;;;;;;34.38;21.63;;;6.10;99.90;;;;;;5073752;28;20103;-50
2022/11/16 08:08:56;;;;;;;48.72;26.92;;;6.10;99.90;;;;;;5073760;28;20024;-50
2022/11/16 08:11:22;;;;;;;87.65;41.38;;;6.10;99.90;;;;;;5073577;28;20020;-50
2022/11/16 08:13:48;;;;;;;49.55;28.08;;;6.10;99.90;;;;;;5073504;28;20437;-50
2022/11/16 08:16:16;;;;;;;68.97;35.00;;;6.10;99.90;;;;;;5073669;28;20032;-51
2022/11/16 08:18:43;;;;;;;48.25;29.45;;;6.00;99.90;;;;;;5073217;28;20082;-50
2022/11/16 08:21:11;;;;;;;82.65;42.22;;;6.10;99.90;;;;;;5073800;28;20036;-50
2022/11/16 08:23:36;;;;;;;48.35;29.08;;;6.00;99.90;;;;;;5072229;28;20031;-51
2022/11/16 08:26:05;;;;;;;53.75;30.75;;;6.10;99.90;;;;;;5073334;28;20434;-50
2022/11/16 08:28:32;;;;;;;65.53;40.00;;;6.20;99.90;;;;;;5073228;28;20031;-50
2022/11/16 08:30:58;;;;;;;51.67;31.08;;;6.20;99.90;;;;;;5073410;28;20021;-51
2022/11/16 08:33:25;;;;;;;46.58;31.98;;;6.30;99.90;;;;;;5073183;28;20028;-52
2022/11/16 08:35:51;;;;;;;35.95;22.90;;;6.30;99.90;;;;;;5073328;28;20377;-51
2022/11/16 08:38:20;;;;;;;33.20;19.05;;;6.40;99.90;;;;;;5073238;28;20101;-51
2022/11/16 08:40:46;;;;;;;28.40;17.88;;;6.50;99.90;;;;;;5073003;28;20064;-51
2022/11/16 08:43:12;;;;;;;26.63;19.45;;;6.50;99.90;;;;;;5073189;28;20021;-50
2022/11/16 08:45:38;;;;;;;27.08;17.70;;;6.50;99.90;;;;;;5071981;28;20074;-50
2022/11/16 08:48:04;;;;;;;24.67;17.00;;;6.50;99.90;;;;;;5071531;28;20020;-50
2022/11/16 08:50:30;;;;;;;25.45;17.02;;;6.50;99.90;;;;;;5072874;28;20439;-51
2022/11/16 08:52:59;;;;;;;29.77;19.10;;;6.50;99.90;;;;;;5073154;28;20112;-51
2022/11/16 08:55:25;;;;;;;28.35;19.42;;;6.40;99.90;;;;;;5073136;28;20115;-50
2022/11/16 08:57:51;;;;;;;27.63;17.70;;;6.40;99.90;;;;;;5072709;28;20103;-53
2022/11/16 09:00:17;;;;;;;25.15;17.83;;;6.40;99.90;;;;;;5072884;28;20421;-51
2022/11/16 09:02:42;;;;;;;31.50;18.13;;;6.40;99.90;;;;;;5072267;28;20029;-52
2022/11/16 09:05:10;;;;;;;30.23;18.52;;;6.50;99.90;;;;;;5072648;28;20043;-52
2022/11/16 09:07:38;;;;;;;27.60;18.52;;;6.40;99.90;;;;;;5072665;28;20075;-49
2022/11/16 09:10:04;;;;;;;31.00;19.25;;;6.40;99.90;;;;;;5071365;28;20037;-51
2022/11/16 09:12:30;;;;;;;27.10;16.10;;;6.40;99.90;;;;;;5072408;28;20073;-52
2022/11/16 09:14:55;;;;;;;24.38;16.52;;;6.60;99.90;;;;;;5072457;28;20028;-50
2022/11/16 09:17:21;;;;;;;25.48;16.45;;;6.80;99.90;;;;;;5072327;28;20095;-50
2022/11/16 09:19:47;;;;;;;24.20;15.85;;;6.80;99.90;;;;;;5070874;28;20139;-50
2022/11/16 09:22:12;;;;;;;20.13;15.02;;;6.90;99.90;;;;;;5072407;28;20118;-51
2022/11/16 09:24:38;;;;;;;24.25;15.77;;;6.90;99.90;;;;;;5072161;28;20491;-52
2022/11/16 09:27:13;;;;;;;30.50;17.27;;;6.90;99.90;;;;;;5072222;28;20021;-51
2022/11/16 09:29:42;;;;;;;26.05;16.17;;;7.00;99.90;;;;;;5072188;28;20040;-51
2022/11/16 09:32:08;;;;;;;22.65;15.40;;;7.10;99.90;;;;;;5072172;28;20060;-51
2022/11/16 09:34:35;;;;;;;28.77;17.73;;;7.00;99.90;;;;;;5072299;28;20049;-51
2022/11/16 09:37:01;;;;;;;24.08;15.73;;;7.00;99.90;;;;;;5072047;28;20036;-51
2022/11/16 09:39:26;;;;;;;22.35;16.63;;;7.00;99.90;;;;;;5072167;28;20029;-50
2022/11/16 09:41:58;;;;;;;22.23;16.60;;;7.10;99.90;;;;;;5071736;28;20046;-51
2022/11/16 09:44:44;;;;;;;24.08;16.23;;;7.10;99.90;;;;;;5080625;28;20028;-50
2022/11/16 09:47:33;;;;;;;21.65;15.98;;;7.10;99.90;;;;;;5085504;28;20476;-52
2022/11/16 09:50:01;;;;;;;26.65;16.77;;;7.10;99.90;;;;;;5066824;28;20032;-52
2022/11/16 09:52:45;;;;;;;26.70;17.63;;;7.00;99.90;;;;;;5072573;28;20032;-51
2022/11/16 09:55:41;;;;;;;21.73;15.55;;;6.90;99.90;;;;;;5072570;28;20020;-52
2022/11/16 09:58:15;;;;;;;26.50;18.52;;;6.90;99.90;;;;;;5070411;28;20087;-52
2022/11/16 10:00:43;;;;;;;;;;;6.90;99.90;;;;;;5071963;28;20426;-50
2022/11/16 10:03:13;;;;;;;23.92;17.23;;;6.90;99.90;;;;;;5071350;28;20323;-51
2022/11/16 10:06:04;;;;;;;30.52;16.95;;;7.00;99.90;;;;;;5070038;28;20029;-50
2022/11/16 10:08:43;;;;;;;28.38;16.38;;;7.10;99.90;;;;;;5071296;28;20073;-50
2022/11/16 10:11:38;;;;;;;22.52;14.43;;;7.20;99.90;;;;;;5071480;28;20020;-50
2022/11/16 10:14:28;;;;;;;21.92;14.93;;;7.30;99.90;;;;;;5062199;28;20391;-50
2022/11/16 10:17:03;;;;;;;24.23;16.50;;;7.40;99.90;;;;;;5071084;28;20032;-51
2022/11/16 10:19:28;;;;;;;22.48;15.77;;;7.40;99.90;;;;;;5071100;28;20045;-51
2022/11/16 10:22:12;;;;;;;21.40;15.07;;;7.40;99.90;;;;;;5070970;28;20012;-50
2022/11/16 10:24:56;;;;;;;21.90;14.70;;;7.60;99.90;;;;;;5070873;28;20391;-50
2022/11/16 10:27:59;;;;;;;18.60;14.73;;;7.60;99.90;;;;;;5069726;28;20430;-51
2022/11/16 10:30:26;;;;;;;35.80;20.27;;;7.60;99.90;;;;;;5070921;28;20024;-50
2022/11/16 10:33:09;;;;;;;34.80;18.50;;;7.70;99.90;;;;;;5070917;28;20684;-52
2022/11/16 10:35:45;;;;;;;23.00;16.48;;;7.70;99.90;;;;;;5070882;28;20043;-50
2022/11/16 10:38:23;;;;;;;24.98;17.45;;;7.90;99.90;;;;;;5070900;28;20383;-50
2022/11/16 10:40:53;;;;;;;21.88;16.05;;;7.90;99.90;;;;;;5070667;28;20036;-51
2022/11/16 10:43:25;;;;;;;22.60;18.10;;;8.00;99.90;;;;;;5070948;28;20515;-53
2022/11/16 10:46:27;;;;;;;22.88;15.18;;;8.00;99.90;;;;;;5070438;28;20790;-50
2022/11/16 10:49:05;;;;;;;22.90;15.95;;;8.00;99.90;;;;;;5070616;28;20099;-51
2022/11/16 10:51:30;;;;;;;16.85;13.95;;;8.00;99.90;;;;;;5070545;28;20023;-51
2022/11/16 10:53:56;;;;;;;26.00;17.98;;;8.10;99.90;;;;;;5070601;28;20232;-52
2022/11/16 10:56:26;;;;;;;25.08;17.35;;;8.10;99.90;;;;;;5070486;28;20108;-51
2022/11/16 10:58:59;;;;;;;30.88;19.02;;;8.10;99.90;;;;;;5070326;28;20044;-51
2022/11/16 11:01:48;;;;;;;28.80;18.80;;;8.10;99.90;;;;;;5070579;28;20028;-51
2022/11/16 11:04:28;;;;;;;20.38;14.40;;;8.10;99.90;;;;;;5070386;28;20028;-51
2022/11/16 11:06:58;;;;;;;17.55;12.90;;;8.10;99.90;;;;;;5070245;28;20086;-50
2022/11/16 11:09:28;;;;;;;19.38;12.38;;;8.20;99.90;;;;;;5070400;28;20021;-52
2022/11/16 11:14:57;;;;;;;22.73;17.58;;;8.10;99.90;;;;;;5070274;28;20445;-51
2022/11/16 11:17:23;;;;;;;31.75;23.95;;;8.10;99.90;;;;;;5070335;28;20056;-51
2022/11/16 11:20:05;;;;;;;18.02;15.60;;;8.10;99.90;;;;;;5069982;28;20086;-51
2022/11/16 11:22:41;;;;;;;17.08;13.88;;;8.20;99.90;;;;;;5070020;28;20029;-51
2022/11/16 11:25:24;;;;;;;17.08;12.50;;;8.20;99.90;;;;;;5070117;28;20162;-50
2022/11/16 11:28:11;;;;;;;19.93;15.03;;;8.20;99.90;;;;;;5070049;28;20377;-50
2022/11/16 11:30:38;;;;;;;13.90;11.15;;;8.30;99.90;;;;;;5062291;28;20267;-52
2022/11/16 11:33:11;;;;;;;15.65;12.88;;;8.20;99.90;;;;;;5070338;28;20043;-52
2022/11/16 11:35:36;;;;;;;16.30;13.13;;;8.20;99.90;;;;;;5070032;28;20021;-50
2022/11/16 11:38:03;;;;;;;14.40;11.82;;;8.10;99.90;;;;;;5070405;28;20415;-50
2022/11/16 11:40:31;;;;;;;16.80;12.57;;;8.20;99.90;;;;;;5069937;28;20537;-49
2022/11/16 11:43:01;;;;;;;14.07;12.13;;;8.30;99.90;;;;;;5070217;28;20436;-50
2022/11/16 11:45:43;;;;;;;16.65;13.25;;;8.20;99.90;;;;;;5070003;28;20551;-50
2022/11/16 11:48:14;;;;;;;19.02;14.65;;;8.30;99.90;;;;;;5070020;28;20476;-50
2022/11/16 11:50:56;;;;;;;14.80;12.32;;;8.40;99.90;;;;;;5070014;28;20017;-51
2022/11/16 11:53:41;;;;;;;49.78;31.85;;;8.40;99.90;;;;;;5070060;28;20025;-50
2022/11/16 11:56:09;;;;;;;24.45;18.75;;;8.30;99.90;;;;;;5070068;28;20016;-53
2022/11/16 11:58:38;;;;;;;20.85;14.00;;;8.40;99.90;;;;;;5069887;28;20028;-50
2022/11/16 12:01:29;;;;;;;25.98;20.38;;;8.30;99.90;;;;;;5070018;28;20570;-50
2022/11/16 12:04:07;;;;;;;20.40;16.00;;;8.40;99.90;;;;;;5069728;28;20029;-50
2022/11/16 12:07:06;;;;;;;23.98;16.58;;;8.40;99.90;;;;;;5069968;28;20047;-50
2022/11/16 12:10:01;;;;;;;17.80;13.57;;;8.40;99.90;;;;;;5069720;28;20020;-50
2022/11/16 12:12:36;;;;;;;16.08;12.85;;;8.40;99.90;;;;;;5032626;28;20038;-52
2022/11/16 12:15:33;;;;;;;16.30;14.13;;;8.40;99.90;;;;;;5069843;28;20024;-50
2022/11/16 12:18:29;;;;;;;18.38;13.68;;;8.30;99.90;;;;;;5069678;28;20034;-50
2022/11/16 12:20:59;;;;;;;17.90;13.57;;;8.40;99.90;;;;;;5072656;28;20068;-51
2022/11/16 12:23:37;;;;;;;27.08;12.88;;;8.40;99.90;;;;;;5073661;28;20032;-51
2022/11/16 12:26:14;;;;;;;17.77;14.57;;;8.30;99.90;;;;;;5073223;28;20059;-50
2022/11/16 12:28:48;;;;;;;20.20;14.95;;;8.30;99.90;;;;;;5073387;28;20020;-52
2022/11/16 12:31:46;;;;;;;16.15;14.18;;;8.30;99.90;;;;;;5073312;28;20427;-54
2022/11/16 12:34:12;;;;;;;15.10;12.93;;;8.40;99.90;;;;;;5073433;28;20035;-52
2022/11/16 12:37:01;;;;;;;19.30;13.00;;;8.50;99.90;;;;;;5073292;28;20020;-51
2022/11/16 12:39:30;;;;;;;13.82;12.20;;;8.40;99.90;;;;;;5073011;28;20369;-50
2022/11/16 12:42:23;;;;;;;20.02;13.98;;;8.60;99.90;;;;;;5071872;28;20352;-50
2022/11/16 12:45:22;;;;;;;16.33;12.68;;;8.50;99.90;;;;;;5072666;28;20028;-49
2022/11/16 12:47:47;;;;;;;14.95;12.38;;;8.70;99.90;;;;;;5072811;28;20412;-51
2022/11/16 12:50:43;;;;;;;16.98;13.57;;;8.70;99.90;;;;;;5072883;28;20016;-52
2022/11/16 12:53:24;;;;;;;17.67;14.30;;;8.70;99.90;;;;;;5073010;28;20095;-52
2022/11/16 12:56:23;;;;;;;18.35;14.20;;;8.60;99.90;;;;;;5072700;28;20195;-51
2022/11/16 12:59:13;;;;;;;18.80;14.25;;;8.60;99.90;;;;;;5066652;28;20050;-50
2022/11/16 13:02:11;;;;;;;18.00;14.63;;;8.70;99.90;;;;;;5072551;28;20028;-50
2022/11/16 13:04:46;;;;;;;15.32;13.70;;;8.80;99.90;;;;;;5063125;28;20036;-51
2022/11/16 13:07:17;;;;;;;23.80;15.63;;;8.80;99.90;;;;;;5072683;28;20020;-51
2022/11/16 13:09:47;;;;;;;19.70;15.52;;;8.90;99.90;;;;;;5072807;28;20404;-51
2022/11/16 13:12:16;;;;;;;25.52;15.70;;;8.80;99.90;;;;;;5072452;28;20024;-51
2022/11/16 13:14:49;;;;;;;18.77;13.85;;;8.70;99.90;;;;;;5072478;28;20472;-51
2022/11/16 13:17:18;;;;;;;17.77;12.45;;;8.70;99.90;;;;;;5072598;28;20111;-51
2022/11/16 13:20:31;;;;;;;14.93;11.93;;;8.70;99.90;;;;;;5071900;28;20348;-51
2022/11/16 13:23:12;;;;;;;12.52;10.73;;;8.70;99.90;;;;;;5068542;28;20040;-51
2022/11/16 13:26:09;;;;;;;20.40;15.20;;;8.70;99.90;;;;;;5072374;28;20032;-51
2022/11/16 13:29:15;;;;;;;17.38;14.63;;;8.80;99.90;;;;;;5072115;28;20044;-50
2022/11/16 13:32:01;;;;;;;35.63;31.60;;;8.90;99.90;;;;;;5071236;28;20089;-50
2022/11/16 13:34:31;;;;;;;17.85;15.45;;;8.80;99.90;;;;;;5064735;28;20102;-52
2022/11/16 13:36:57;;;;;;;15.35;13.40;;;8.80;99.90;;;;;;5071964;28;20115;-51